Time;durP1;ratioP1;P1;durP2;ratioP2;P2;SDS_P1;SDS_P2;PMS_P1;PMS_P2;Temp;Humidity;BMP_temperature;BMP_pressure;BME280_temperature;BME280_humidity;BME280_pressure;Samples;Min_cycle;Max_cycle;Signal;HPM_P1;HPM_P2
2022/03/11 00:02:03;;;;;;;21.95;11.40;;;5.00;99.90;;;;;;4961954;28;20039;-64
2022/03/11 00:04:29;;;;;;;26.88;12.63;;;5.00;99.90;;;;;;4997767;23;20045;-59
2022/03/11 00:06:55;;;;;;;20.38;10.77;;;5.00;99.90;;;;;;4992597;28;20074;-59
2022/03/11 00:09:20;;;;;;;22.20;11.77;;;4.90;99.90;;;;;;4994739;28;20030;-61
2022/03/11 00:11:46;;;;;;;22.67;11.38;;;4.90;99.90;;;;;;5010728;28;20125;-60
2022/03/11 00:14:11;;;;;;;23.25;11.07;;;4.90;99.90;;;;;;4998128;28;20037;-60
2022/03/11 00:16:37;;;;;;;23.17;11.43;;;4.80;99.90;;;;;;5009949;28;20104;-58
2022/03/11 00:19:02;;;;;;;20.42;11.13;;;4.80;99.90;;;;;;4988942;28;20529;-58
2022/03/11 00:21:28;;;;;;;22.17;11.20;;;4.70;99.90;;;;;;4986504;28;20041;-59
2022/03/11 00:23:54;;;;;;;18.70;9.98;;;4.70;99.90;;;;;;4986931;28;20038;-61
2022/03/11 00:26:19;;;;;;;20.70;10.45;;;4.70;99.90;;;;;;4997343;28;20073;-60
2022/03/11 00:28:45;;;;;;;22.88;11.45;;;4.70;99.90;;;;;;5008219;28;20049;-60
2022/03/11 00:31:10;;;;;;;25.83;11.30;;;4.70;99.90;;;;;;5009736;28;20550;-62
2022/03/11 00:33:36;;;;;;;20.25;9.77;;;4.60;99.90;;;;;;5008452;28;20057;-62
2022/03/11 00:36:02;;;;;;;19.27;10.10;;;4.60;99.90;;;;;;5009208;28;20041;-60
2022/03/11 00:38:28;;;;;;;19.13;10.82;;;4.50;99.90;;;;;;5008880;28;20352;-59
2022/03/11 00:40:56;;;;;;;21.55;10.18;;;4.50;99.90;;;;;;5010480;28;20034;-58
2022/03/11 00:43:23;;;;;;;28.98;11.10;;;4.50;99.90;;;;;;5009151;28;20026;-58
2022/03/11 00:45:49;;;;;;;25.55;10.90;;;4.50;99.90;;;;;;5008559;28;20034;-59
2022/03/11 00:48:14;;;;;;;24.60;11.45;;;4.50;99.90;;;;;;5010425;28;20022;-59
2022/03/11 00:50:40;;;;;;;18.80;9.93;;;4.40;99.90;;;;;;5009600;28;20022;-60
2022/03/11 00:53:06;;;;;;;22.05;10.32;;;4.40;99.90;;;;;;5001696;28;20081;-60
2022/03/11 00:55:32;;;;;;;17.65;10.38;;;4.40;99.90;;;;;;5008366;28;20407;-58
2022/03/11 00:57:57;;;;;;;19.80;10.18;;;4.30;99.90;;;;;;5009251;28;20030;-60
2022/03/11 01:00:24;;;;;;;25.50;12.07;;;4.30;99.90;;;;;;5008943;28;20336;-61
2022/03/11 01:02:49;;;;;;;21.13;10.23;;;4.30;99.90;;;;;;5008957;28;20029;-61
2022/03/11 01:05:15;;;;;;;21.30;10.50;;;4.20;99.90;;;;;;5008608;28;20042;-61
2022/03/11 01:07:41;;;;;;;22.73;10.43;;;4.20;99.90;;;;;;5009209;28;20084;-60
2022/03/11 01:10:08;;;;;;;23.25;10.75;;;4.10;99.90;;;;;;5009721;28;20075;-61
2022/03/11 01:12:35;;;;;;;23.38;12.10;;;4.10;99.90;;;;;;5009329;28;20418;-61
2022/03/11 01:15:00;;;;;;;20.42;10.77;;;4.10;99.90;;;;;;5008129;28;20495;-60
2022/03/11 01:17:26;;;;;;;18.23;9.75;;;4.10;99.90;;;;;;5009050;28;20065;-59
2022/03/11 01:19:53;;;;;;;22.88;10.77;;;4.10;99.90;;;;;;5009137;28;20136;-60
2022/03/11 01:22:18;;;;;;;19.73;10.23;;;4.00;99.90;;;;;;5009167;28;20376;-60
2022/03/11 01:24:44;;;;;;;22.23;9.70;;;4.00;99.90;;;;;;5008590;28;20156;-61
2022/03/11 01:27:10;;;;;;;20.35;10.52;;;4.00;99.90;;;;;;5008350;28;20364;-61
2022/03/11 01:29:35;;;;;;;22.38;11.13;;;3.90;99.90;;;;;;5009496;28;20221;-62
2022/03/11 01:32:01;;;;;;;20.63;10.02;;;3.90;99.90;;;;;;5008864;28;20026;-59
2022/03/11 01:34:27;;;;;;;24.15;11.25;;;3.90;99.90;;;;;;5009183;28;20167;-59
2022/03/11 01:36:52;;;;;;;20.58;9.65;;;3.90;99.90;;;;;;5008385;28;20201;-62
2022/03/11 01:39:18;;;;;;;23.10;10.80;;;3.90;99.90;;;;;;5008877;28;20034;-62
2022/03/11 01:41:43;;;;;;;21.58;10.77;;;3.80;99.90;;;;;;5008105;28;20034;-61
2022/03/11 01:44:10;;;;;;;19.30;9.38;;;3.80;99.90;;;;;;5006427;28;20112;-61
2022/03/11 01:46:36;;;;;;;19.90;9.35;;;3.80;99.90;;;;;;5012666;28;20030;-62
2022/03/11 01:49:04;;;;;;;20.17;9.95;;;3.70;99.90;;;;;;5010531;28;20437;-62
2022/03/11 01:51:32;;;;;;;19.90;9.98;;;3.60;99.90;;;;;;5008592;28;20113;-62
2022/03/11 01:53:58;;;;;;;20.42;9.40;;;3.50;99.90;;;;;;5002979;28;20032;-62
2022/03/11 01:56:25;;;;;;;19.33;9.55;;;3.60;99.90;;;;;;5013299;28;20022;-62
2022/03/11 01:58:53;;;;;;;23.42;10.15;;;3.60;99.90;;;;;;5012202;28;20404;-63
2022/03/11 02:01:20;;;;;;;19.30;9.80;;;3.50;99.90;;;;;;5012560;28;20030;-60
2022/03/11 02:03:46;;;;;;;20.60;10.00;;;3.50;99.90;;;;;;5011845;28;20044;-61
2022/03/11 02:06:13;;;;;;;20.38;9.40;;;3.40;99.90;;;;;;5011645;28;20033;-61
2022/03/11 02:08:39;;;;;;;21.88;9.70;;;3.40;99.90;;;;;;5010323;28;20080;-62
2022/03/11 02:11:06;;;;;;;25.23;10.45;;;3.30;99.90;;;;;;5012358;28;20030;-62
2022/03/11 02:13:55;;;;;;;20.70;9.80;;;3.30;99.90;;;;;;5012070;28;20026;-61
2022/03/11 02:16:32;;;;;;;20.90;9.75;;;3.30;99.90;;;;;;5005166;28;20045;-62
2022/03/11 02:18:59;;;;;;;20.60;10.07;;;3.30;99.90;;;;;;5012235;28;20141;-62
2022/03/11 02:21:28;;;;;;;25.35;10.63;;;3.30;99.90;;;;;;5012426;28;20026;-59
2022/03/11 02:23:58;;;;;;;18.17;9.70;;;3.20;99.90;;;;;;5010788;28;20042;-58
2022/03/11 02:26:27;;;;;;;21.30;9.90;;;3.10;99.90;;;;;;5012257;28;20030;-62
2022/03/11 02:28:54;;;;;;;20.48;9.18;;;3.20;99.90;;;;;;5010930;28;20029;-62
2022/03/11 02:31:27;;;;;;;21.00;9.65;;;3.20;99.90;;;;;;5011516;28;20026;-60
2022/03/11 02:33:52;;;;;;;20.85;9.60;;;3.20;99.90;;;;;;5012018;28;20026;-60
2022/03/11 02:36:20;;;;;;;21.48;10.07;;;3.10;99.90;;;;;;5011167;28;20034;-57
2022/03/11 02:38:46;;;;;;;22.05;9.68;;;3.10;99.90;;;;;;5012101;28;20040;-59
2022/03/11 02:41:12;;;;;;;23.65;9.70;;;3.20;99.90;;;;;;5011715;28;20026;-61
2022/03/11 02:43:38;;;;;;;24.58;9.52;;;3.20;99.90;;;;;;5011231;28;20040;-61
2022/03/11 02:46:04;;;;;;;19.60;9.45;;;3.10;99.90;;;;;;5008658;28;20075;-61
2022/03/11 02:48:29;;;;;;;19.48;9.10;;;3.10;99.90;;;;;;5009808;28;20109;-61
2022/03/11 02:50:55;;;;;;;25.30;10.40;;;3.00;99.90;;;;;;5011892;28;20483;-62
2022/03/11 02:53:21;;;;;;;18.75;8.82;;;3.10;99.90;;;;;;5011209;28;20450;-61
2022/03/11 02:55:47;;;;;;;21.35;10.02;;;3.10;99.90;;;;;;5009726;28;20029;-62
2022/03/11 02:58:13;;;;;;;22.45;10.20;;;3.00;99.90;;;;;;5011291;28;20119;-60
2022/03/11 03:00:38;;;;;;;20.55;9.20;;;3.00;99.90;;;;;;5011209;28;20022;-59
2022/03/11 03:03:05;;;;;;;22.08;10.13;;;2.90;99.90;;;;;;5010253;28;20496;-63
2022/03/11 03:05:30;;;;;;;24.58;10.60;;;2.90;99.90;;;;;;5010669;28;20113;-62
2022/03/11 03:07:56;;;;;;;22.75;9.77;;;2.90;99.90;;;;;;5010089;28;20117;-62
2022/03/11 03:10:22;;;;;;;20.45;9.05;;;2.90;99.90;;;;;;5010404;28;20431;-58
2022/03/11 03:12:48;;;;;;;24.35;10.35;;;2.90;99.90;;;;;;5010871;28;20499;-61
2022/03/11 03:15:13;;;;;;;22.05;10.45;;;2.80;99.90;;;;;;5010569;28;20029;-60
2022/03/11 03:17:39;;;;;;;24.13;10.05;;;2.80;99.90;;;;;;5006147;28;20518;-61
2022/03/11 03:20:05;;;;;;;23.40;10.13;;;2.70;99.90;;;;;;5010637;28;20519;-61
2022/03/11 03:22:31;;;;;;;22.52;10.10;;;2.70;99.90;;;;;;5010609;28;20109;-58
2022/03/11 03:24:57;;;;;;;28.58;10.52;;;2.70;99.90;;;;;;5010554;28;20199;-61
2022/03/11 03:27:22;;;;;;;22.27;10.77;;;2.70;99.90;;;;;;5010004;28;20300;-60
2022/03/11 03:29:48;;;;;;;19.15;9.15;;;2.70;99.90;;;;;;5010817;28;20402;-61
2022/03/11 03:32:14;;;;;;;26.52;10.65;;;2.60;99.90;;;;;;5010897;28;20152;-60
2022/03/11 03:34:39;;;;;;;19.70;9.27;;;2.60;99.90;;;;;;5010778;28;20058;-58
2022/03/11 03:37:08;;;;;;;19.42;9.60;;;2.60;99.90;;;;;;5008979;28;20030;-57
2022/03/11 03:39:34;;;;;;;22.00;10.88;;;2.60;99.90;;;;;;5011357;28;20112;-56
2022/03/11 03:42:00;;;;;;;24.70;10.18;;;2.60;99.90;;;;;;5011650;28;20438;-57
2022/03/11 03:44:26;;;;;;;24.00;11.35;;;2.50;99.90;;;;;;5010799;28;20034;-58
2022/03/11 03:46:52;;;;;;;27.40;11.00;;;2.50;99.90;;;;;;5009811;28;20030;-57
2022/03/11 03:49:17;;;;;;;25.08;11.70;;;2.50;99.90;;;;;;5010227;28;20030;-59
2022/03/11 03:51:44;;;;;;;24.70;10.75;;;2.40;99.90;;;;;;5011092;28;20053;-60
2022/03/11 03:54:10;;;;;;;24.52;10.85;;;2.40;99.90;;;;;;5010656;28;20044;-60
2022/03/11 03:56:36;;;;;;;21.85;10.95;;;2.40;99.90;;;;;;5009964;28;20103;-60
2022/03/11 03:59:04;;;;;;;23.75;11.40;;;2.40;99.90;;;;;;5010499;28;20042;-60
2022/03/11 04:01:35;;;;;;;23.77;10.60;;;2.30;99.90;;;;;;5010299;28;20038;-59
2022/03/11 04:04:03;;;;;;;24.40;11.10;;;2.30;99.90;;;;;;5009997;28;20102;-58
2022/03/11 04:06:29;;;;;;;23.33;10.52;;;2.20;99.90;;;;;;5009511;28;20079;-60
2022/03/11 04:08:56;;;;;;;27.50;10.50;;;2.20;99.90;;;;;;5008596;28;20026;-58
2022/03/11 04:11:26;;;;;;;29.00;11.65;;;2.10;99.90;;;;;;5010553;28;20068;-58
2022/03/11 04:13:52;;;;;;;22.30;10.73;;;2.10;99.90;;;;;;5009925;28;20022;-58
2022/03/11 04:16:18;;;;;;;28.08;11.82;;;2.20;99.90;;;;;;5009491;28;20506;-59
2022/03/11 04:18:45;;;;;;;23.13;11.35;;;2.10;99.90;;;;;;5010243;28;20120;-59
2022/03/11 04:21:11;;;;;;;23.83;10.77;;;2.10;99.90;;;;;;5010031;28;20065;-57
2022/03/11 04:23:37;;;;;;;32.38;12.73;;;2.00;99.90;;;;;;5009594;28;20065;-58
2022/03/11 04:26:03;;;;;;;27.05;11.55;;;2.00;99.90;;;;;;5008758;28;20041;-57
2022/03/11 04:28:28;;;;;;;24.52;11.85;;;2.00;99.90;;;;;;5009989;28;20029;-59
2022/03/11 04:30:54;;;;;;;29.00;11.68;;;2.00;99.90;;;;;;5010892;28;20033;-58
2022/03/11 04:33:21;;;;;;;24.15;11.60;;;2.00;99.90;;;;;;5008778;28;20105;-58
2022/03/11 04:35:47;;;;;;;28.65;11.35;;;2.00;99.90;;;;;;5010500;28;20058;-58
2022/03/11 04:38:13;;;;;;;27.00;11.05;;;1.90;99.90;;;;;;5009064;28;20057;-58
2022/03/11 04:40:41;;;;;;;27.27;11.60;;;1.90;99.90;;;;;;5010679;28;20117;-59
2022/03/11 04:43:07;;;;;;;23.17;10.95;;;1.80;99.90;;;;;;5007614;28;20026;-58
2022/03/11 04:45:33;;;;;;;23.70;11.20;;;1.80;99.90;;;;;;5010311;28;20076;-58
2022/03/11 04:47:59;;;;;;;27.95;11.88;;;1.80;99.90;;;;;;5009366;28;20139;-57
2022/03/11 04:50:25;;;;;;;25.75;10.45;;;1.70;99.90;;;;;;5010520;28;20394;-60
2022/03/11 04:52:51;;;;;;;25.27;11.45;;;1.70;99.90;;;;;;5008202;28;20026;-58
2022/03/11 04:55:17;;;;;;;25.45;10.40;;;1.70;99.90;;;;;;5002441;28;20041;-60
2022/03/11 04:57:43;;;;;;;30.05;12.13;;;1.80;99.90;;;;;;5009462;28;20025;-58
2022/03/11 05:00:09;;;;;;;30.52;12.07;;;1.70;99.90;;;;;;5008281;28;20105;-60
2022/03/11 05:02:35;;;;;;;24.60;10.73;;;1.70;99.90;;;;;;5010358;28;20117;-58
2022/03/11 05:05:06;;;;;;;26.02;10.35;;;1.70;99.90;;;;;;5009913;28;20073;-57
2022/03/11 05:07:31;;;;;;;26.42;11.50;;;1.60;99.90;;;;;;5009450;28;20251;-59
2022/03/11 05:09:57;;;;;;;27.23;11.68;;;1.60;99.90;;;;;;5010268;28;20057;-58
2022/03/11 05:12:23;;;;;;;27.50;11.65;;;1.60;99.90;;;;;;5008431;28;20034;-58
2022/03/11 05:14:52;;;;;;;25.73;11.32;;;1.50;99.90;;;;;;5010050;28;20084;-60
2022/03/11 05:17:18;;;;;;;24.67;11.98;;;1.60;99.90;;;;;;5008919;28;20033;-60
2022/03/11 05:19:45;;;;;;;34.65;12.15;;;1.50;99.90;;;;;;5009590;28;20467;-60
2022/03/11 05:22:13;;;;;;;27.40;11.50;;;1.50;99.90;;;;;;5012271;28;20030;-58
2022/03/11 05:24:39;;;;;;;30.08;12.50;;;1.50;99.90;;;;;;5011543;28;20034;-60
2022/03/11 05:27:06;;;;;;;28.55;12.15;;;1.50;99.90;;;;;;5011539;28;20092;-59
2022/03/11 05:29:32;;;;;;;32.63;11.98;;;1.50;99.90;;;;;;5013640;28;20022;-59
2022/03/11 05:31:59;;;;;;;26.98;11.93;;;1.40;99.90;;;;;;5013058;28;20113;-60
2022/03/11 05:34:24;;;;;;;31.23;12.05;;;1.40;99.90;;;;;;5010512;28;20029;-59
2022/03/11 05:36:50;;;;;;;31.20;11.75;;;1.50;99.90;;;;;;5011043;28;20033;-55
2022/03/11 05:39:16;;;;;;;31.40;12.38;;;1.50;99.90;;;;;;5007878;28;20488;-55
2022/03/11 05:41:42;;;;;;;34.33;11.55;;;1.40;99.90;;;;;;5001590;28;20034;-59
2022/03/11 05:44:07;;;;;;;35.28;13.10;;;1.40;99.90;;;;;;5010807;28;20441;-58
2022/03/11 05:46:33;;;;;;;32.20;11.77;;;1.40;99.90;;;;;;5012199;28;20042;-59
2022/03/11 05:48:59;;;;;;;31.95;11.25;;;1.40;99.90;;;;;;5012736;28;20499;-57
2022/03/11 05:51:24;;;;;;;31.42;11.57;;;1.30;99.90;;;;;;5012664;28;20022;-57
2022/03/11 05:53:50;;;;;;;22.90;10.43;;;1.30;99.90;;;;;;5012651;28;20117;-57
2022/03/11 05:56:16;;;;;;;29.67;11.98;;;1.30;99.90;;;;;;5012508;28;20057;-57
2022/03/11 05:58:41;;;;;;;29.02;12.15;;;1.30;99.90;;;;;;5011894;28;20113;-57
2022/03/11 06:01:07;;;;;;;31.67;12.00;;;1.30;99.90;;;;;;5012344;28;20444;-59
2022/03/11 06:03:33;;;;;;;36.50;12.27;;;1.30;99.90;;;;;;5010243;28;20034;-57
2022/03/11 06:05:58;;;;;;;30.67;12.48;;;1.30;99.90;;;;;;5001106;23;20156;-59
2022/03/11 06:08:24;;;;;;;29.05;13.05;;;1.30;99.90;;;;;;4973105;28;20065;-58
2022/03/11 06:10:50;;;;;;;28.70;11.13;;;1.30;99.90;;;;;;4974036;28;20499;-60
2022/03/11 06:13:16;;;;;;;29.23;12.23;;;1.30;99.90;;;;;;4988014;28;20031;-59
2022/03/11 06:15:42;;;;;;;31.60;11.57;;;1.30;99.90;;;;;;4972459;28;20088;-60
2022/03/11 06:18:09;;;;;;;33.10;12.38;;;1.20;99.90;;;;;;4972977;28;20035;-57
2022/03/11 06:20:36;;;;;;;28.98;11.13;;;1.20;99.90;;;;;;4973406;28;20023;-63
2022/03/11 06:23:02;;;;;;;30.17;12.00;;;1.20;99.90;;;;;;4973324;28;20388;-63
2022/03/11 06:25:28;;;;;;;27.08;11.55;;;1.20;99.90;;;;;;4972999;28;20147;-63
2022/03/11 06:27:54;;;;;;;36.63;12.55;;;1.20;99.90;;;;;;4972522;28;20535;-62
2022/03/11 06:30:19;;;;;;;27.05;12.32;;;1.20;99.90;;;;;;4967324;28;20447;-62
2022/03/11 06:32:47;;;;;;;29.77;11.52;;;1.20;99.90;;;;;;4971616;28;20085;-63
2022/03/11 06:35:14;;;;;;;35.17;11.90;;;1.30;99.90;;;;;;4968521;28;20039;-61
2022/03/11 06:37:50;;;;;;;29.30;11.60;;;1.30;99.90;;;;;;4972181;28;20042;-61
2022/03/11 06:40:16;;;;;;;36.30;11.73;;;1.20;99.90;;;;;;4966008;28;20035;-61
2022/03/11 06:42:45;;;;;;;30.95;12.50;;;1.30;99.90;;;;;;4972582;28;20443;-61
2022/03/11 06:45:12;;;;;;;41.25;12.70;;;1.30;99.90;;;;;;4969467;28;20042;-57
2022/03/11 06:47:38;;;;;;;30.38;12.73;;;1.30;99.90;;;;;;4972122;28;20030;-61
2022/03/11 06:50:05;;;;;;;32.75;12.35;;;1.30;99.90;;;;;;4971432;28;20498;-59
2022/03/11 06:52:31;;;;;;;30.60;11.25;;;1.30;99.90;;;;;;4970142;28;20365;-64
2022/03/11 06:54:57;;;;;;;31.30;12.00;;;1.30;99.90;;;;;;4971045;28;20274;-58
2022/03/11 06:57:22;;;;;;;34.20;12.27;;;1.30;99.90;;;;;;4969911;28;20046;-61
2022/03/11 06:59:49;;;;;;;34.75;11.20;;;1.30;99.90;;;;;;4970455;28;20035;-65
2022/03/11 07:02:16;;;;;;;26.80;11.18;;;1.30;99.90;;;;;;4971857;28;20019;-64
2022/03/11 07:04:42;;;;;;;35.92;12.20;;;1.40;99.90;;;;;;4972813;28;20037;-66
2022/03/11 07:07:08;;;;;;;30.92;12.23;;;1.40;99.90;;;;;;4971287;28;20019;-58
2022/03/11 07:09:34;;;;;;;23.77;10.55;;;1.50;99.90;;;;;;4972349;28;20469;-58
2022/03/11 07:12:03;;;;;;;26.67;10.88;;;1.50;99.90;;;;;;4972350;28;20043;-59
2022/03/11 07:14:29;;;;;;;34.70;11.25;;;1.50;99.90;;;;;;4968114;28;20041;-64
2022/03/11 07:16:56;;;;;;;27.35;11.23;;;1.50;99.90;;;;;;4971336;28;20110;-58
2022/03/11 07:19:24;;;;;;;34.92;11.48;;;1.60;99.90;;;;;;4969598;28;20384;-65
2022/03/11 07:21:50;;;;;;;30.17;10.90;;;1.60;99.90;;;;;;4970024;28;20034;-65
2022/03/11 07:24:16;;;;;;;29.83;11.35;;;1.60;99.90;;;;;;4971002;28;20193;-66
2022/03/11 07:26:41;;;;;;;29.98;10.43;;;1.60;99.90;;;;;;4972045;28;20027;-64
2022/03/11 07:29:07;;;;;;;30.23;11.02;;;1.60;99.90;;;;;;4965868;28;20471;-66
2022/03/11 07:31:33;;;;;;;27.90;11.02;;;1.60;99.90;;;;;;4967956;28;20035;-65
2022/03/11 07:33:59;;;;;;;31.33;11.38;;;1.60;99.90;;;;;;4971368;28;20105;-65
2022/03/11 07:36:25;;;;;;;27.83;11.38;;;1.60;99.90;;;;;;4968352;28;20042;-67
2022/03/11 07:38:51;;;;;;;32.00;11.18;;;1.60;99.90;;;;;;4969500;28;20042;-64
2022/03/11 07:41:17;;;;;;;35.33;11.32;;;1.60;99.90;;;;;;4971338;28;20029;-66
2022/03/11 07:43:44;;;;;;;31.80;12.15;;;1.70;99.90;;;;;;4971402;28;20027;-65
2022/03/11 07:46:11;;;;;;;41.80;12.48;;;1.80;99.90;;;;;;4968772;28;20030;-67
2022/03/11 07:48:37;;;;;;;32.22;10.93;;;1.80;99.90;;;;;;4982766;28;20435;-65
2022/03/11 07:51:03;;;;;;;35.25;10.90;;;1.90;99.90;;;;;;4971244;28;20030;-67
2022/03/11 07:53:29;;;;;;;37.30;11.45;;;2.00;99.90;;;;;;4969060;28;20081;-66
2022/03/11 07:55:54;;;;;;;37.13;10.98;;;1.90;99.90;;;;;;4967866;28;20491;-65
2022/03/11 07:58:21;;;;;;;35.88;12.23;;;2.00;99.90;;;;;;4984837;28;20113;-66
2022/03/11 08:00:48;;;;;;;35.47;11.85;;;2.10;99.90;;;;;;4971064;28;20046;-66
2022/03/11 08:03:15;;;;;;;30.83;10.63;;;2.20;99.90;;;;;;4963930;28;20479;-65
2022/03/11 08:05:40;;;;;;;29.92;10.52;;;2.30;98.40;;;;;;4963708;28;20981;-64
2022/03/11 08:08:06;;;;;;;29.75;10.85;;;2.30;97.30;;;;;;4968144;28;20030;-64
2022/03/11 08:10:36;;;;;;;33.72;11.65;;;2.30;97.00;;;;;;4969412;28;20023;-62
2022/03/11 08:13:02;;;;;;;29.85;10.32;;;2.40;96.80;;;;;;4956293;28;20070;-64
2022/03/11 08:15:28;;;;;;;28.33;11.38;;;2.50;95.70;;;;;;4968976;28;20054;-63
2022/03/11 08:17:54;;;;;;;32.80;10.85;;;2.60;94.70;;;;;;4971153;28;20511;-62
2022/03/11 08:20:20;;;;;;;30.23;11.07;;;2.60;94.00;;;;;;4970715;28;20030;-56
2022/03/11 08:22:45;;;;;;;27.75;10.60;;;2.70;94.00;;;;;;4971521;28;20443;-57
2022/03/11 08:25:12;;;;;;;36.13;11.32;;;2.70;91.40;;;;;;4970670;28;20056;-57
2022/03/11 08:27:38;;;;;;;40.00;11.13;;;2.80;91.10;;;;;;4970872;28;20054;-65
2022/03/11 08:30:09;;;;;;;29.90;9.85;;;2.80;90.30;;;;;;4970666;28;20517;-64
2022/03/11 08:32:35;;;;;;;32.25;10.60;;;2.90;89.30;;;;;;4968939;28;20360;-64
2022/03/11 08:35:01;;;;;;;32.97;10.40;;;2.90;88.20;;;;;;4970673;28;20176;-63
2022/03/11 08:37:27;;;;;;;32.97;10.05;;;2.90;87.60;;;;;;4970055;28;20038;-63
2022/03/11 08:39:52;;;;;;;32.85;11.13;;;3.00;88.50;;;;;;4971407;28;20054;-62
2022/03/11 08:42:18;;;;;;;33.38;10.23;;;3.10;86.10;;;;;;4970361;28;20368;-64
2022/03/11 08:44:44;;;;;;;39.20;11.13;;;3.30;82.20;;;;;;4971042;28;20648;-61
2022/03/11 08:47:10;;;;;;;28.70;10.02;;;3.30;81.00;;;;;;4967112;28;20027;-64
2022/03/11 08:49:36;;;;;;;25.02;9.32;;;3.30;79.80;;;;;;4971199;28;20128;-64
2022/03/11 08:52:02;;;;;;;30.50;11.45;;;3.30;78.10;;;;;;4969265;28;20679;-66
2022/03/11 08:54:27;;;;;;;33.30;10.60;;;3.40;78.00;;;;;;4968796;28;20030;-63
2022/03/11 08:56:54;;;;;;;34.40;9.88;;;3.50;77.50;;;;;;4986063;28;20039;-65
2022/03/11 08:59:20;;;;;;;34.15;11.52;;;3.60;75.90;;;;;;4971049;28;20216;-63
2022/03/11 09:01:46;;;;;;;40.65;10.93;;;3.70;76.60;;;;;;4971361;28;20027;-64
2022/03/11 09:04:12;;;;;;;32.85;9.32;;;3.80;74.10;;;;;;4970829;28;20105;-62
2022/03/11 09:06:38;;;;;;;36.13;10.10;;;3.90;71.70;;;;;;4968974;28;20488;-63
2022/03/11 09:09:04;;;;;;;28.60;10.25;;;3.90;70.10;;;;;;4971166;28;20162;-62
2022/03/11 09:11:32;;;;;;;29.17;10.00;;;3.90;69.60;;;;;;4971407;28;20027;-65
2022/03/11 09:13:57;;;;;;;23.33;9.48;;;3.90;69.10;;;;;;4970789;28;20034;-64
2022/03/11 09:16:23;;;;;;;34.25;11.00;;;4.00;69.60;;;;;;4970115;28;20628;-65
2022/03/11 09:18:49;;;;;;;30.55;10.48;;;4.20;69.30;;;;;;4970292;28;20035;-61
2022/03/11 09:21:15;;;;;;;46.28;11.68;;;4.20;67.30;;;;;;4970390;28;20560;-64
2022/03/11 09:23:42;;;;;;;49.88;11.10;;;4.30;65.60;;;;;;4970437;28;20034;-63
2022/03/11 09:26:08;;;;;;;48.67;10.27;;;4.40;64.70;;;;;;4969122;28;20463;-64
2022/03/11 09:28:33;;;;;;;29.38;9.85;;;4.60;64.60;;;;;;4969968;28;20058;-64
2022/03/11 09:31:01;;;;;;;41.13;10.02;;;4.70;64.20;;;;;;4971305;28;20023;-64
2022/03/11 09:33:27;;;;;;;30.55;10.55;;;4.80;62.30;;;;;;4971059;28;20031;-58
2022/03/11 09:35:52;;;;;;;48.72;11.02;;;4.80;61.10;;;;;;4970982;28;20322;-59
2022/03/11 09:38:18;;;;;;;34.78;10.45;;;4.90;60.90;;;;;;4968018;28;20023;-64
2022/03/11 09:40:45;;;;;;;37.20;10.82;;;5.00;60.90;;;;;;4956530;28;20389;-64
2022/03/11 09:43:15;;;;;;;26.88;9.27;;;5.20;60.60;;;;;;4957108;28;20034;-64
2022/03/11 09:45:41;;;;;;;30.80;9.52;;;5.30;58.80;;;;;;4970155;28;20370;-64
2022/03/11 09:48:07;;;;;;;37.03;11.13;;;5.20;58.50;;;;;;4970044;28;20034;-63
2022/03/11 09:50:33;;;;;;;28.83;9.88;;;5.20;58.50;;;;;;4970481;28;20031;-64
2022/03/11 09:52:59;;;;;;;31.70;10.93;;;5.40;58.90;;;;;;4969700;28;20023;-64
2022/03/11 09:55:25;;;;;;;36.05;10.73;;;5.60;57.90;;;;;;4968655;28;20026;-64
2022/03/11 09:57:50;;;;;;;28.25;10.07;;;5.60;57.50;;;;;;4969466;28;20031;-66
2022/03/11 10:00:16;;;;;;;29.73;9.85;;;5.50;56.50;;;;;;4970654;28;20026;-61
2022/03/11 10:02:45;;;;;;;28.38;9.40;;;5.80;55.90;;;;;;4965941;28;20031;-63
2022/03/11 10:05:11;;;;;;;25.25;9.10;;;6.00;55.00;;;;;;4968062;28;20184;-64
2022/03/11 10:07:36;;;;;;;29.27;10.20;;;6.00;54.70;;;;;;4971471;28;20125;-62
2022/03/11 10:10:20;;;;;;;32.13;10.18;;;6.10;54.80;;;;;;4973911;28;20027;-59
2022/03/11 10:12:47;;;;;;;25.83;8.90;;;6.40;54.20;;;;;;4986924;28;20050;-55
2022/03/11 10:15:14;;;;;;;44.08;10.60;;;6.40;53.20;;;;;;4966242;28;20185;-60
2022/03/11 10:17:42;;;;;;;23.23;9.43;;;6.50;51.50;;;;;;4973189;28;20369;-60
2022/03/11 10:20:11;;;;;;;22.40;9.45;;;6.50;51.20;;;;;;4966220;28;20049;-60
2022/03/11 10:22:38;;;;;;;21.25;8.80;;;6.50;51.40;;;;;;4973034;28;20511;-59
2022/03/11 10:25:25;;;;;;;26.58;9.68;;;6.60;51.20;;;;;;4973115;28;20058;-62
2022/03/11 10:28:04;;;;;;;19.75;8.77;;;6.80;50.10;;;;;;4972983;28;20034;-61
2022/03/11 10:30:33;;;;;;;24.25;9.23;;;6.80;50.60;;;;;;4973293;28;20019;-56
2022/03/11 10:33:01;;;;;;;31.17;10.68;;;6.90;50.30;;;;;;4970298;28;20298;-60
2022/03/11 10:35:36;;;;;;;32.63;8.85;;;7.20;50.10;;;;;;4972684;28;20031;-61
2022/03/11 10:38:08;;;;;;;34.75;9.57;;;7.20;49.30;;;;;;4973184;28;20146;-61
2022/03/11 10:40:35;;;;;;;;;;;7.40;49.20;;;;;;4972174;28;20118;-58
2022/03/11 10:43:18;;;;;;;32.95;10.73;;;7.50;48.30;;;;;;4971285;28;19918;-60
2022/03/11 10:45:47;;;;;;;;;;;7.70;47.90;;;;;;4972408;28;20030;-63
2022/03/11 10:48:14;;;;;;;21.10;8.93;;;7.70;47.40;;;;;;4980904;28;20221;-61
2022/03/11 10:50:40;;;;;;;24.52;8.68;;;7.90;47.10;;;;;;4972495;28;20019;-64
2022/03/11 10:53:10;;;;;;;26.08;9.40;;;7.90;44.80;;;;;;4980829;28;20035;-59
2022/03/11 10:55:39;;;;;;;26.27;8.68;;;7.80;44.30;;;;;;4967516;28;20034;-60
2022/03/11 10:58:06;;;;;;;25.60;9.65;;;7.70;44.10;;;;;;4971126;28;20362;-64
2022/03/11 11:00:36;;;;;;;17.33;8.13;;;7.80;44.90;;;;;;4981001;28;20057;-65
2022/03/11 11:03:09;;;;;;;25.52;9.25;;;7.90;44.80;;;;;;4969565;28;20034;-59
2022/03/11 11:05:36;;;;;;;22.10;7.65;;;8.20;45.10;;;;;;4969658;28;20361;-61
2022/03/11 11:08:04;;;;;;;19.73;9.15;;;8.30;44.00;;;;;;4970635;28;20043;-62
2022/03/11 11:10:33;;;;;;;24.58;8.80;;;8.50;44.30;;;;;;4979528;28;20117;-58
2022/03/11 11:12:59;;;;;;;26.80;9.98;;;8.60;44.20;;;;;;4972408;28;20027;-62
2022/03/11 11:15:24;;;;;;;33.33;8.57;;;8.70;44.10;;;;;;4969845;28;20110;-63
2022/03/11 11:17:52;;;;;;;25.30;9.48;;;8.80;44.60;;;;;;4978623;28;20042;-61
2022/03/11 11:20:47;;;;;;;21.08;8.70;;;8.80;43.90;;;;;;4986464;28;20038;-62
2022/03/11 11:23:15;;;;;;;19.05;8.07;;;9.00;43.40;;;;;;4967240;28;20085;-63
2022/03/11 11:25:41;;;;;;;20.20;8.13;;;9.00;42.90;;;;;;4970992;28;20047;-64
2022/03/11 11:28:22;;;;;;;20.58;8.82;;;9.20;43.00;;;;;;4963721;28;20026;-65
2022/03/11 11:30:52;;;;;;;20.20;8.40;;;9.20;41.90;;;;;;4971141;28;20030;-65
2022/03/11 11:33:18;;;;;;;22.33;8.45;;;9.10;41.70;;;;;;4971864;28;20034;-65
2022/03/11 11:35:45;;;;;;;22.80;8.00;;;9.10;41.20;;;;;;4970598;28;20035;-63
2022/03/11 11:38:31;;;;;;;23.30;9.07;;;9.40;41.20;;;;;;4973466;28;20113;-62
2022/03/11 11:40:58;;;;;;;26.35;8.70;;;9.50;41.10;;;;;;4979722;28;20034;-62
2022/03/11 11:43:27;;;;;;;21.02;8.18;;;9.80;40.50;;;;;;4971691;28;20038;-64
2022/03/11 11:46:11;;;;;;;17.08;8.15;;;9.90;40.40;;;;;;4970317;28;20038;-63
2022/03/11 11:48:45;;;;;;;17.90;8.75;;;10.30;40.40;;;;;;4973941;28;20392;-62
2022/03/11 11:51:12;;;;;;;22.25;8.52;;;10.50;39.20;;;;;;4974468;28;20039;-62
2022/03/11 11:53:41;;;;;;;20.20;8.75;;;10.50;39.60;;;;;;4970272;28;20421;-64
2022/03/11 11:56:26;;;;;;;41.45;9.65;;;10.60;39.50;;;;;;4968735;28;20026;-64
2022/03/11 11:58:52;;;;;;;25.33;9.15;;;10.60;38.50;;;;;;4969887;28;20042;-62
2022/03/11 12:01:39;;;;;;;19.05;8.38;;;10.70;38.10;;;;;;4983692;28;20484;-61
2022/03/11 12:04:29;;;;;;;24.00;8.18;;;11.20;37.70;;;;;;4979983;28;20042;-58
2022/03/11 12:06:59;;;;;;;28.85;8.48;;;12.10;37.00;;;;;;4967753;28;20210;-58
2022/03/11 12:09:58;;;;;;;19.45;7.95;;;12.40;35.70;;;;;;4971044;28;20023;-60
2022/03/11 12:12:24;;;;;;;16.00;7.22;;;13.20;35.00;;;;;;4970139;28;20050;-60
2022/03/11 12:15:04;;;;;;;17.40;7.15;;;13.20;32.40;;;;;;4971099;28;20106;-64
2022/03/11 12:18:01;;;;;;;14.93;7.47;;;13.10;32.20;;;;;;4970294;28;20027;-61
2022/03/11 12:20:46;;;;;;;16.60;7.35;;;13.10;32.10;;;;;;4966468;28;20038;-59
2022/03/11 12:23:14;;;;;;;27.48;7.95;;;13.10;31.50;;;;;;4969912;28;20037;-63
2022/03/11 12:25:57;;;;;;;14.35;7.72;;;13.40;31.70;;;;;;4969642;28;20015;-56
2022/03/11 12:28:35;;;;;;;17.90;6.65;;;14.00;31.00;;;;;;4978559;28;20053;-55
2022/03/11 12:31:10;;;;;;;13.45;7.40;;;14.20;29.90;;;;;;4985984;28;20093;-57
2022/03/11 12:33:45;;;;;;;15.55;7.78;;;14.40;29.80;;;;;;4969112;28;20600;-58
2022/03/11 12:36:19;;;;;;;21.95;8.38;;;14.70;30.20;;;;;;4970067;28;20030;-59
2022/03/11 12:38:46;;;;;;;24.80;8.27;;;14.30;30.60;;;;;;4969184;28;20022;-59
2022/03/11 12:41:14;;;;;;;40.72;8.30;;;15.00;30.00;;;;;;4978634;28;20114;-61
2022/03/11 12:43:42;;;;;;;22.38;7.55;;;15.00;29.00;;;;;;4970480;28;20023;-61